Time;durP1;ratioP1;P1;durP2;ratioP2;P2;SDS_P1;SDS_P2;PMS_P1;PMS_P2;Temp;Humidity;BMP_temperature;BMP_pressure;BME280_temperature;BME280_humidity;BME280_pressure;Samples;Min_cycle;Max_cycle;Signal;HPM_P1;HPM_P2
2023/10/12 00:02:09;;;;;;;7.00;1.87;;;14.90;99.90;;;;;;5035693;28;20124;-70
2023/10/12 00:04:50;;;;;;;5.78;1.27;;;14.80;99.90;;;;;;5051775;28;20041;-70
2023/10/12 00:07:17;;;;;;;5.20;1.27;;;14.80;99.90;;;;;;5051883;28;20044;-70
2023/10/12 00:09:53;;;;;;;6.93;1.40;;;14.70;99.90;;;;;;5051812;28;20041;-70
2023/10/12 00:12:23;;;;;;;6.22;1.48;;;14.60;99.90;;;;;;5020602;28;20489;-71
2023/10/12 00:14:50;;;;;;;6.85;1.50;;;14.60;99.90;;;;;;5035978;28;20049;-70
2023/10/12 00:17:19;;;;;;;7.93;1.70;;;14.60;99.90;;;;;;5052029;28;20059;-69
2023/10/12 00:19:45;;;;;;;6.70;1.60;;;14.50;99.90;;;;;;5035132;28;20094;-70
2023/10/12 00:22:15;;;;;;;6.60;1.60;;;14.50;99.90;;;;;;5035142;28;20041;-71
2023/10/12 00:24:41;;;;;;;9.23;1.83;;;14.40;99.90;;;;;;5051812;28;20048;-70
2023/10/12 00:27:12;;;;;;;6.95;1.70;;;14.40;99.90;;;;;;5051857;28;20037;-70
2023/10/12 00:29:39;;;;;;;8.55;1.90;;;14.30;99.90;;;;;;5037808;28;20041;-72
2023/10/12 00:32:09;;;;;;;6.63;1.70;;;14.30;99.90;;;;;;5055415;28;20045;-71
2023/10/12 00:34:37;;;;;;;8.07;1.90;;;14.20;99.90;;;;;;5022771;28;20048;-71
2023/10/12 00:37:05;;;;;;;7.57;1.83;;;14.20;99.90;;;;;;5038600;28;20067;-71
2023/10/12 00:39:57;;;;;;;8.75;1.88;;;14.10;99.90;;;;;;5055140;28;20055;-70
2023/10/12 00:42:24;;;;;;;6.95;1.67;;;14.10;99.90;;;;;;5042547;28;20494;-70
2023/10/12 00:44:54;;;;;;;9.52;1.90;;;14.10;99.90;;;;;;5055370;28;20079;-70
2023/10/12 00:47:43;;;;;;;8.80;2.15;;;14.10;99.90;;;;;;5038737;28;20055;-70
2023/10/12 00:50:12;;;;;;;9.90;2.30;;;14.00;99.90;;;;;;5055114;28;20103;-71
2023/10/12 00:53:02;;;;;;;10.77;2.05;;;13.90;99.90;;;;;;5038517;28;20048;-70
2023/10/12 00:55:40;;;;;;;7.72;1.90;;;13.90;99.90;;;;;;5041157;28;20489;-70
2023/10/12 00:58:08;;;;;;;8.82;2.10;;;13.90;99.90;;;;;;5038268;28;20178;-72
2023/10/12 01:00:35;;;;;;;9.23;2.38;;;13.90;99.90;;;;;;5022059;28;20512;-71
2023/10/12 01:03:07;;;;;;;9.65;2.15;;;13.90;99.90;;;;;;5056257;28;20033;-71
2023/10/12 01:05:36;;;;;;;;;;;13.90;99.90;;;;;;5006839;28;20041;-71
2023/10/12 01:08:05;;;;;;;10.02;2.20;;;13.90;99.90;;;;;;5055080;28;19916;-71
2023/10/12 01:10:33;;;;;;;9.60;2.03;;;13.90;99.90;;;;;;5071748;28;20512;-71
2023/10/12 01:13:01;;;;;;;10.15;2.25;;;13.90;99.90;;;;;;5054799;28;20052;-71
2023/10/12 01:15:29;;;;;;;11.10;2.20;;;13.90;99.90;;;;;;5054661;28;20080;-70
2023/10/12 01:17:56;;;;;;;7.65;2.10;;;13.90;99.90;;;;;;5038738;28;20131;-70
2023/10/12 01:20:26;;;;;;;10.45;2.33;;;13.90;99.90;;;;;;5038033;28;20052;-70
2023/10/12 01:22:57;;;;;;;10.15;2.20;;;13.90;99.90;;;;;;5054968;28;20041;-70
2023/10/12 01:25:28;;;;;;;7.10;1.80;;;13.90;99.90;;;;;;5022004;28;20033;-70
2023/10/12 01:27:55;;;;;;;10.90;2.20;;;13.90;99.90;;;;;;5038228;28;20033;-71
2023/10/12 01:30:22;;;;;;;8.85;2.00;;;13.90;99.90;;;;;;5037951;28;20275;-70
2023/10/12 01:32:55;;;;;;;9.82;2.30;;;13.90;99.90;;;;;;5054495;28;20044;-70
2023/10/12 01:35:32;;;;;;;11.65;2.45;;;13.90;99.90;;;;;;5037681;28;20067;-69
2023/10/12 01:38:01;;;;;;;8.18;2.15;;;13.90;99.90;;;;;;5037536;28;20503;-70
2023/10/12 01:40:40;;;;;;;8.23;1.90;;;13.90;99.90;;;;;;5037602;28;20037;-71
2023/10/12 01:43:12;;;;;;;10.90;2.03;;;13.90;99.90;;;;;;5037918;28;20489;-71
2023/10/12 01:45:41;;;;;;;10.83;2.10;;;13.90;99.90;;;;;;5037402;28;20128;-70
2023/10/12 01:48:10;;;;;;;9.60;2.33;;;13.80;99.90;;;;;;5038231;28;20043;-70
2023/10/12 01:50:39;;;;;;;9.85;2.22;;;13.80;99.90;;;;;;5037883;28;20048;-71
2023/10/12 01:55:52;;;;;;;10.13;2.00;;;13.80;99.90;;;;;;5023416;28;20049;-71
2023/10/12 01:58:20;;;;;;;10.55;2.20;;;13.70;99.90;;;;;;5037162;28;20045;-70
2023/10/12 02:00:53;;;;;;;9.52;2.33;;;13.70;99.90;;;;;;5037063;28;20132;-71
2023/10/12 02:03:32;;;;;;;9.50;2.47;;;13.70;99.90;;;;;;5021932;28;20037;-70
2023/10/12 02:06:04;;;;;;;9.55;2.05;;;13.70;99.90;;;;;;5037249;28;20076;-70
2023/10/12 02:08:32;;;;;;;10.68;2.20;;;13.70;99.90;;;;;;5021185;28;20036;-70
2023/10/12 02:11:26;;;;;;;10.52;2.45;;;13.70;99.90;;;;;;5053869;28;20044;-70
2023/10/12 02:14:01;;;;;;;10.68;2.40;;;13.70;99.90;;;;;;5037346;28;20045;-70
2023/10/12 02:16:37;;;;;;;10.25;2.25;;;13.70;99.90;;;;;;5037656;28;20396;-72
2023/10/12 02:19:19;;;;;;;10.60;2.30;;;13.70;99.90;;;;;;5053577;28;20045;-73
2023/10/12 02:21:46;;;;;;;10.27;2.30;;;13.70;99.90;;;;;;5036661;28;20040;-73
2023/10/12 02:24:13;;;;;;;10.95;2.95;;;13.70;99.90;;;;;;5036922;28;20041;-73
2023/10/12 02:29:18;;;;;;;9.30;2.40;;;13.60;99.90;;;;;;5053390;28;20047;-71
2023/10/12 02:34:28;;;;;;;10.27;2.45;;;13.60;99.90;;;;;;5053199;28;20045;-71
2023/10/12 02:39:40;;;;;;;7.80;2.40;;;13.60;99.90;;;;;;5038700;28;20048;-72
2023/10/12 02:47:29;;;;;;;10.50;2.47;;;13.50;99.90;;;;;;5053955;28;20049;-72
2023/10/12 02:50:01;;;;;;;9.40;2.42;;;13.50;99.90;;;;;;5037263;28;20501;-71
2023/10/12 02:52:33;;;;;;;10.52;2.50;;;13.50;99.90;;;;;;5036928;28;20481;-71
2023/10/12 02:58:17;;;;;;;12.57;2.40;;;13.50;99.90;;;;;;5053643;28;20110;-73
2023/10/12 03:03:24;;;;;;;9.60;2.45;;;13.50;99.90;;;;;;5053753;28;20124;-73
2023/10/12 03:05:52;;;;;;;9.55;2.40;;;13.50;99.90;;;;;;5038508;28;20094;-72
2023/10/12 03:08:22;;;;;;;12.23;2.80;;;13.50;99.90;;;;;;5036875;28;20037;-72
2023/10/12 03:13:26;;;;;;;10.68;2.30;;;13.60;99.90;;;;;;5052917;28;20048;-73
2023/10/12 03:16:03;;;;;;;8.55;2.40;;;13.50;99.90;;;;;;5052782;28;20056;-72
2023/10/12 03:18:30;;;;;;;10.60;2.72;;;13.50;99.90;;;;;;5021141;28;20044;-72
2023/10/12 03:21:04;;;;;;;10.23;2.70;;;13.50;99.90;;;;;;5035851;28;20052;-72
2023/10/12 03:23:33;;;;;;;11.25;2.55;;;13.60;99.90;;;;;;5052528;28;20116;-72
2023/10/12 03:26:04;;;;;;;11.73;2.67;;;13.50;99.90;;;;;;5003917;28;20094;-71
2023/10/12 03:28:30;;;;;;;10.10;2.75;;;13.50;99.90;;;;;;5036465;28;20048;-70
2023/10/12 03:31:15;;;;;;;7.32;2.67;;;13.50;99.90;;;;;;5035932;28;20041;-70
2023/10/12 03:33:54;;;;;;;8.75;2.63;;;13.50;99.90;;;;;;5035990;28;20051;-71
2023/10/12 03:36:32;;;;;;;10.52;2.65;;;13.40;99.90;;;;;;5052231;28;20055;-71
2023/10/12 03:41:55;;;;;;;10.20;2.90;;;13.40;99.90;;;;;;5052429;28;20486;-70
2023/10/12 03:46:58;;;;;;;8.95;3.13;;;13.30;99.90;;;;;;5052324;28;20099;-70
2023/10/12 03:52:02;;;;;;;9.23;2.80;;;13.30;99.90;;;;;;5036716;28;20045;-70
2023/10/12 03:54:32;;;;;;;10.15;3.22;;;13.30;99.90;;;;;;5035757;28;20396;-71
2023/10/12 03:57:07;;;;;;;11.27;3.35;;;13.40;99.90;;;;;;5019478;28;20037;-70
2023/10/12 04:02:18;;;;;;;10.75;3.67;;;13.30;99.90;;;;;;5052024;28;20520;-70
2023/10/12 04:05:01;;;;;;;15.50;4.30;;;13.30;99.90;;;;;;5005604;28;20033;-70
2023/10/12 04:08:00;;;;;;;10.07;3.13;;;13.30;99.90;;;;;;5039704;28;20493;-70
2023/10/12 04:19:03;;;;;;;16.52;4.00;;;13.30;99.90;;;;;;5056112;28;20044;-70
2023/10/12 04:21:57;;;;;;;12.25;3.90;;;13.30;99.90;;;;;;5042028;28;20060;-71
2023/10/12 04:24:29;;;;;;;10.40;3.40;;;13.30;99.90;;;;;;5039206;28;20049;-72
2023/10/12 04:27:23;;;;;;;11.18;4.30;;;13.30;99.90;;;;;;5039449;28;20041;-70
2023/10/12 04:29:56;;;;;;;11.35;3.90;;;13.30;99.90;;;;;;5055820;28;20041;-71
2023/10/12 04:35:19;;;;;;;9.95;3.80;;;13.30;99.90;;;;;;5042142;28;20486;-72
2023/10/12 04:37:45;;;;;;;11.23;4.07;;;13.30;99.90;;;;;;5039035;28;20528;-72
2023/10/12 04:40:36;;;;;;;14.32;4.10;;;13.30;99.90;;;;;;5055310;28;20126;-72
2023/10/12 04:43:06;;;;;;;9.70;3.55;;;13.30;99.90;;;;;;5055254;28;20045;-72
2023/10/12 04:48:28;;;;;;;12.05;4.13;;;13.30;99.90;;;;;;5055320;28;20105;-72
2023/10/12 04:51:18;;;;;;;12.82;4.30;;;13.30;99.90;;;;;;5024491;28;20041;-70
2023/10/12 04:53:57;;;;;;;15.07;4.85;;;13.30;99.90;;;;;;5024619;28;20147;-72
2023/10/12 04:56:26;;;;;;;10.52;3.90;;;13.30;99.90;;;;;;5023286;28;20060;-71
2023/10/12 04:59:14;;;;;;;15.68;4.93;;;13.30;99.90;;;;;;5022430;28;20041;-71
2023/10/12 05:02:01;;;;;;;11.65;4.20;;;13.30;99.90;;;;;;5055339;28;20051;-72
2023/10/12 05:09:37;;;;;;;14.57;4.60;;;13.30;99.90;;;;;;5038720;28;20040;-70
2023/10/12 05:12:11;;;;;;;9.65;3.47;;;13.30;99.90;;;;;;5039175;28;20045;-71
2023/10/12 05:14:40;;;;;;;13.25;4.47;;;13.30;99.90;;;;;;5005812;28;20037;-71
2023/10/12 05:17:10;;;;;;;14.63;4.28;;;13.30;99.90;;;;;;5038022;28;20059;-72
2023/10/12 05:19:36;;;;;;;11.80;3.83;;;13.30;99.90;;;;;;5038208;28;20111;-72
2023/10/12 05:22:06;;;;;;;12.63;4.05;;;13.30;99.90;;;;;;5054355;28;20079;-70
2023/10/12 05:24:32;;;;;;;13.55;4.70;;;13.30;99.90;;;;;;5054332;28;20044;-72
2023/10/12 05:27:09;;;;;;;11.05;3.60;;;13.30;99.90;;;;;;5038411;28;20489;-71
2023/10/12 05:29:46;;;;;;;10.27;4.25;;;13.30;99.90;;;;;;5054536;28;20106;-71
2023/10/12 05:34:57;;;;;;;13.25;4.78;;;13.30;99.90;;;;;;5040331;28;20091;-71
2023/10/12 05:37:26;;;;;;;11.48;4.20;;;13.30;99.90;;;;;;5038007;28;20057;-71
2023/10/12 05:39:55;;;;;;;11.80;3.92;;;13.30;99.90;;;;;;5054229;28;20048;-71
2023/10/12 05:42:23;;;;;;;10.20;3.92;;;13.30;99.90;;;;;;5037166;28;20064;-71
2023/10/12 05:45:35;;;;;;;11.05;3.85;;;13.40;99.90;;;;;;5037722;28;20044;-72
2023/10/12 05:47:44;;;;;;;10.60;3.60;;;13.30;99.90;;;;;;5032730;28;20041;-71
2023/10/12 05:50:25;;;;;;;10.27;3.85;;;13.30;99.90;;;;;;5038190;28;20037;-72
2023/10/12 05:53:00;;;;;;;12.68;4.07;;;13.30;99.90;;;;;;5054392;28;20041;-70
2023/10/12 05:55:27;;;;;;;9.70;3.13;;;13.30;99.90;;;;;;5038696;28;20470;-71
2023/10/12 05:58:09;;;;;;;9.70;3.97;;;13.30;99.90;;;;;;5005044;28;20076;-72
2023/10/12 06:00:45;;;;;;;;;;;13.30;99.90;;;;;;5037762;28;20073;-71
2023/10/12 06:03:20;;;;;;;8.27;3.40;;;13.30;99.90;;;;;;5038613;28;19923;-71
2023/10/12 06:05:48;;;;;;;8.95;2.88;;;13.20;99.90;;;;;;5053865;28;20083;-72
2023/10/12 06:08:26;;;;;;;9.20;2.92;;;13.20;99.90;;;;;;5021224;28;20041;-71
2023/10/12 06:11:01;;;;;;;9.63;3.30;;;13.20;99.90;;;;;;5053811;28;20041;-71
2023/10/12 06:13:43;;;;;;;8.45;3.10;;;13.20;99.90;;;;;;5053759;28;20041;-71
2023/10/12 06:16:15;;;;;;;9.73;3.10;;;13.20;99.90;;;;;;5053996;28;20084;-70
2023/10/12 06:18:44;;;;;;;8.50;2.90;;;13.10;99.90;;;;;;5053689;28;20041;-71
2023/10/12 06:21:17;;;;;;;9.23;3.30;;;13.10;99.90;;;;;;5036883;28;20076;-71
2023/10/12 06:23:44;;;;;;;7.40;2.70;;;13.10;99.90;;;;;;5037183;28;20532;-71
2023/10/12 06:26:17;;;;;;;10.05;2.83;;;13.10;99.90;;;;;;5052856;28;20080;-71
2023/10/12 06:28:43;;;;;;;8.38;2.63;;;13.10;99.90;;;;;;5036659;28;20108;-72
2023/10/12 06:31:09;;;;;;;17.70;3.60;;;13.10;99.90;;;;;;5036822;28;20186;-71
2023/10/12 06:33:40;;;;;;;10.40;3.50;;;13.10;99.90;;;;;;5053743;28;20041;-71
2023/10/12 06:36:16;;;;;;;8.25;2.80;;;13.10;99.90;;;;;;5021139;28;20047;-71
2023/10/12 06:39:02;;;;;;;7.05;2.50;;;13.10;99.90;;;;;;5036457;28;20072;-72
2023/10/12 06:46:48;;;;;;;9.43;3.00;;;12.90;99.90;;;;;;5038958;28;20129;-70
2023/10/12 06:49:21;;;;;;;11.75;3.58;;;12.90;99.90;;;;;;5036452;28;20091;-71
2023/10/12 06:52:00;;;;;;;12.35;3.80;;;12.80;99.90;;;;;;5053453;28;20044;-72
2023/10/12 06:57:53;;;;;;;11.52;3.22;;;12.80;99.90;;;;;;5052872;28;20492;-71
2023/10/12 07:00:17;;;;;;;9.73;3.30;;;12.70;99.90;;;;;;5029835;28;20041;-70
2023/10/12 07:02:45;;;;;;;10.18;3.63;;;12.70;99.90;;;;;;5036009;28;20048;-70
2023/10/12 07:05:11;;;;;;;11.68;3.88;;;12.80;99.90;;;;;;5036195;28;20132;-69
2023/10/12 07:07:36;;;;;;;14.25;4.03;;;12.80;99.90;;;;;;5052567;28;20127;-69
2023/10/12 07:13:02;;;;;;;13.38;4.07;;;12.80;99.90;;;;;;5030532;28;20041;-69
2023/10/12 07:15:40;;;;;;;13.00;4.05;;;12.80;99.90;;;;;;5035992;28;20048;-69
2023/10/12 07:18:08;;;;;;;11.98;3.78;;;12.90;99.90;;;;;;5021453;28;20504;-70
2023/10/12 07:23:10;;;;;;;10.80;3.60;;;12.90;99.90;;;;;;5036205;28;20088;-69
2023/10/12 07:25:43;;;;;;;12.90;4.15;;;13.00;99.90;;;;;;5036409;28;20040;-70
2023/10/12 07:28:16;;;;;;;13.48;4.43;;;13.10;99.90;;;;;;5019854;28;20099;-71
2023/10/12 07:30:43;;;;;;;15.10;4.07;;;13.10;99.90;;;;;;5052612;28;20445;-71
2023/10/12 07:33:09;;;;;;;12.45;4.40;;;13.20;99.90;;;;;;5019424;28;20474;-70
2023/10/12 07:35:36;;;;;;;13.35;4.50;;;13.30;99.90;;;;;;5052288;28;20124;-70
2023/10/12 07:38:14;;;;;;;13.30;4.50;;;13.40;99.90;;;;;;5019017;28;20056;-70
2023/10/12 07:41:03;;;;;;;10.40;3.70;;;13.40;99.90;;;;;;5035180;28;20045;-70
2023/10/12 07:43:32;;;;;;;10.93;3.20;;;13.40;99.90;;;;;;5051725;28;20045;-70
2023/10/12 07:46:14;;;;;;;13.02;3.80;;;13.40;99.90;;;;;;5052195;28;20044;-70
2023/10/12 07:48:44;;;;;;;11.88;3.65;;;13.40;99.90;;;;;;5035209;28;20037;-71
2023/10/12 07:51:59;;;;;;;11.25;3.42;;;13.40;99.90;;;;;;5035451;28;20052;-70
2023/10/12 07:54:42;;;;;;;13.30;3.33;;;13.50;99.90;;;;;;5049370;28;20085;-70
2023/10/12 07:56:53;;;;;;;11.77;3.35;;;13.50;99.90;;;;;;5025379;28;20597;-71
2023/10/12 07:59:22;;;;;;;15.02;3.30;;;13.50;99.90;;;;;;5019727;28;20096;-70
2023/10/12 08:01:50;;;;;;;14.15;3.25;;;13.60;99.90;;;;;;5035152;28;20043;-70
2023/10/12 08:04:31;;;;;;;14.77;3.55;;;13.60;99.90;;;;;;5035941;28;20033;-70
2023/10/12 08:06:57;;;;;;;10.45;2.80;;;13.70;99.90;;;;;;5021428;28;20037;-71
2023/10/12 08:11:53;;;;;;;10.68;2.40;;;13.90;99.90;;;;;;5051867;28;20107;-72
2023/10/12 08:14:39;;;;;;;12.20;2.67;;;14.00;99.90;;;;;;5051701;28;20044;-72
2023/10/12 08:20:23;;;;;;;10.35;2.40;;;14.30;99.90;;;;;;5051568;28;20041;-72
2023/10/12 08:22:41;;;;;;;11.65;2.40;;;14.40;99.90;;;;;;5051810;28;20432;-71
2023/10/12 08:25:07;;;;;;;9.18;2.22;;;14.50;99.90;;;;;;5051609;28;20041;-71
2023/10/12 08:27:52;;;;;;;11.48;2.33;;;14.60;99.90;;;;;;5034997;28;20560;-71
2023/10/12 08:30:48;;;;;;;12.75;2.78;;;14.60;99.90;;;;;;5051499;28;20044;-72
2023/10/12 08:33:48;;;;;;;14.18;2.50;;;14.70;99.90;;;;;;5051238;28;20114;-71
2023/10/12 08:38:40;;;;;;;13.25;2.40;;;14.80;99.90;;;;;;5051201;28;20805;-71
2023/10/12 08:41:21;;;;;;;11.10;2.28;;;14.90;99.90;;;;;;5018318;28;20571;-71
2023/10/12 08:43:52;;;;;;;12.77;2.30;;;15.00;99.90;;;;;;5037071;28;20045;-71
2023/10/12 08:49:52;;;;;;;11.63;2.17;;;15.00;99.90;;;;;;4995092;28;20089;-71
2023/10/12 08:52:20;;;;;;;12.70;2.45;;;15.10;99.90;;;;;;4997759;28;20046;-71
2023/10/12 08:55:12;;;;;;;12.90;2.35;;;15.10;99.90;;;;;;5026818;28;20421;-71
2023/10/12 08:57:55;;;;;;;11.43;2.33;;;15.10;99.90;;;;;;5056120;28;20047;-71
2023/10/12 09:05:51;;;;;;;12.88;2.35;;;15.20;99.90;;;;;;5056176;28;20508;-71
2023/10/12 09:10:52;;;;;;;11.30;2.25;;;15.20;99.90;;;;;;5055826;28;20113;-70
2023/10/12 09:13:19;;;;;;;10.30;2.20;;;15.20;99.90;;;;;;5055715;28;20048;-71
2023/10/12 09:15:48;;;;;;;12.82;2.20;;;15.20;99.90;;;;;;5055797;28;20492;-70
2023/10/12 09:18:16;;;;;;;12.63;2.50;;;15.20;99.90;;;;;;5055430;28;20483;-72
2023/10/12 09:26:30;;;;;;;13.75;2.50;;;15.20;99.90;;;;;;5025816;28;20037;-70
2023/10/12 09:29:08;;;;;;;12.93;2.08;;;15.20;99.90;;;;;;5054827;28;20044;-71
2023/10/12 09:36:43;;;;;;;10.02;2.00;;;15.30;99.90;;;;;;5054389;28;20049;-71
2023/10/12 09:39:14;;;;;;;10.80;2.38;;;15.30;99.90;;;;;;5054122;28;20512;-71
2023/10/12 09:41:44;;;;;;;10.95;2.40;;;15.30;99.90;;;;;;5037875;28;20049;-71
2023/10/12 09:44:13;;;;;;;14.48;2.38;;;15.40;99.90;;;;;;5037731;28;20051;-71
2023/10/12 09:46:47;;;;;;;13.30;2.38;;;15.40;99.90;;;;;;5054486;28;20611;-71
2023/10/12 09:49:23;;;;;;;11.02;2.22;;;15.50;99.90;;;;;;5038247;28;20048;-71
2023/10/12 09:51:55;;;;;;;12.70;2.15;;;15.50;99.90;;;;;;5038200;28;20419;-70
2023/10/12 09:54:28;;;;;;;12.77;2.53;;;15.60;99.90;;;;;;5037386;28;20037;-71
2023/10/12 09:57:03;;;;;;;10.65;2.20;;;15.60;99.90;;;;;;5037695;28;20374;-71
2023/10/12 09:59:31;;;;;;;11.40;2.63;;;15.60;99.90;;;;;;5054135;28;20438;-71
2023/10/12 10:02:27;;;;;;;10.18;2.20;;;15.60;99.90;;;;;;5037302;28;20037;-69
2023/10/12 10:05:01;;;;;;;9.88;2.45;;;15.70;99.90;;;;;;5053796;28;20124;-71
2023/10/12 10:07:36;;;;;;;12.85;2.40;;;15.60;99.90;;;;;;5037191;28;20199;-71
2023/10/12 10:10:16;;;;;;;10.60;2.35;;;15.60;99.90;;;;;;5053934;28;20076;-70
2023/10/12 10:12:42;;;;;;;11.23;2.15;;;15.60;99.90;;;;;;5053512;28;20063;-70
2023/10/12 10:15:14;;;;;;;10.30;2.10;;;15.60;99.90;;;;;;5037508;28;20045;-71
2023/10/12 10:17:52;;;;;;;11.20;2.22;;;15.80;99.90;;;;;;5037660;28;20045;-70
2023/10/12 10:23:11;;;;;;;11.40;2.30;;;15.90;99.90;;;;;;5053794;28;20055;-71
2023/10/12 10:25:46;;;;;;;9.48;2.22;;;15.80;99.90;;;;;;5053782;28;20052;-68
2023/10/12 10:28:32;;;;;;;11.73;2.30;;;15.80;99.90;;;;;;5037209;28;20033;-70
2023/10/12 10:31:01;;;;;;;11.55;2.17;;;15.90;99.90;;;;;;5053389;28;20059;-70
2023/10/12 10:33:29;;;;;;;9.18;1.90;;;15.80;99.90;;;;;;5036462;28;20044;-71
2023/10/12 10:44:26;;;;;;;11.32;2.10;;;15.70;99.90;;;;;;5019802;28;20045;-70
2023/10/12 10:47:06;;;;;;;9.15;2.17;;;15.70;99.90;;;;;;5053204;28;20428;-71
2023/10/12 10:49:32;;;;;;;9.00;2.10;;;15.80;99.90;;;;;;5036472;28;20130;-70
2023/10/12 10:54:39;;;;;;;11.70;2.17;;;15.90;99.90;;;;;;5053090;28;20048;-71
2023/10/12 10:57:24;;;;;;;10.27;1.95;;;16.00;99.90;;;;;;5036305;28;20512;-73
2023/10/12 10:59:51;;;;;;;10.25;2.28;;;15.90;99.90;;;;;;5052939;28;20044;-71
2023/10/12 11:02:21;;;;;;;10.63;2.15;;;16.00;99.90;;;;;;5036154;28;20064;-71
2023/10/12 11:04:48;;;;;;;9.77;1.90;;;16.00;99.90;;;;;;5052950;28;20141;-71
2023/10/12 11:07:17;;;;;;;12.55;2.25;;;16.00;99.90;;;;;;5052507;28;20047;-71
2023/10/12 11:10:05;;;;;;;10.20;1.75;;;15.90;99.90;;;;;;5036209;28;20374;-69
2023/10/12 11:12:38;;;;;;;11.10;2.17;;;15.80;99.90;;;;;;5052168;28;20041;-71
2023/10/12 11:15:09;;;;;;;11.75;2.22;;;15.60;99.90;;;;;;5035900;28;20037;-72
2023/10/12 11:18:07;;;;;;;9.68;2.05;;;15.50;99.90;;;;;;5052272;28;20040;-69
2023/10/12 11:20:49;;;;;;;8.75;2.00;;;15.50;99.90;;;;;;5035725;28;20033;-71
2023/10/12 11:23:17;;;;;;;9.38;1.85;;;15.50;99.90;;;;;;5037010;28;20098;-70
2023/10/12 11:25:43;;;;;;;10.60;2.17;;;15.50;99.90;;;;;;5052226;28;20048;-70
2023/10/12 11:28:22;;;;;;;10.98;2.30;;;15.60;99.90;;;;;;5052333;28;20041;-71
2023/10/12 11:30:51;;;;;;;8.82;2.00;;;15.60;99.90;;;;;;5035773;28;20087;-71
2023/10/12 11:33:29;;;;;;;11.93;2.13;;;15.60;99.90;;;;;;5035599;28;20037;-72
2023/10/12 11:36:00;;;;;;;12.18;2.20;;;15.60;99.90;;;;;;5035939;28;20493;-72
2023/10/12 11:38:28;;;;;;;10.83;2.03;;;15.60;99.90;;;;;;5036271;28;20417;-73
2023/10/12 11:40:55;;;;;;;10.77;1.95;;;15.60;99.90;;;;;;5035556;28;20291;-72
2023/10/12 11:43:25;;;;;;;9.90;2.08;;;15.60;99.90;;;;;;5019615;28;20044;-71
2023/10/12 11:46:03;;;;;;;9.95;2.10;;;15.70;99.90;;;;;;5035446;28;20037;-71
2023/10/12 11:48:40;;;;;;;8.43;2.00;;;15.70;99.90;;;;;;5052048;28;20095;-70
2023/10/12 11:51:11;;;;;;;13.70;2.13;;;15.80;99.90;;;;;;5018979;28;20048;-70
2023/10/12 11:53:41;;;;;;;10.80;2.10;;;15.80;99.90;;;;;;5068598;28;20037;-72
2023/10/12 11:56:13;;;;;;;8.35;2.03;;;15.80;99.90;;;;;;5052327;28;20103;-71
2023/10/12 11:58:55;;;;;;;11.05;2.13;;;15.90;99.90;;;;;;5019456;28;20044;-71
2023/10/12 12:01:29;;;;;;;10.77;2.23;;;15.90;99.90;;;;;;5052019;28;20045;-72
2023/10/12 12:03:55;;;;;;;9.50;2.10;;;15.90;99.90;;;;;;5035712;28;20283;-71
2023/10/12 12:06:24;;;;;;;13.98;1.90;;;15.90;99.90;;;;;;5035618;28;20059;-71
2023/10/12 12:08:59;;;;;;;10.57;2.10;;;15.90;99.90;;;;;;5036094;28;20041;-72
2023/10/12 12:11:37;;;;;;;9.40;1.88;;;15.90;99.90;;;;;;5035531;28;20540;-72
2023/10/12 12:14:06;;;;;;;8.80;2.00;;;15.90;99.90;;;;;;5022167;28;20482;-72
2023/10/12 12:16:34;;;;;;;11.27;1.95;;;15.90;99.90;;;;;;5019747;28;20473;-71
2023/10/12 12:19:00;;;;;;;9.20;2.00;;;15.80;99.90;;;;;;5051729;28;20124;-71
2023/10/12 12:21:29;;;;;;;12.55;2.05;;;15.60;99.90;;;;;;5018642;28;20040;-71
2023/10/12 12:27:02;;;;;;;8.77;2.10;;;15.60;99.90;;;;;;5023059;28;20400;-71
2023/10/12 12:29:31;;;;;;;9.02;2.00;;;15.60;99.90;;;;;;5039749;28;20045;-72
2023/10/12 12:32:03;;;;;;;10.90;2.00;;;15.60;99.90;;;;;;5055840;28;20098;-71
2023/10/12 12:34:41;;;;;;;10.65;2.10;;;15.60;99.90;;;;;;5039993;28;20044;-71
2023/10/12 12:37:10;;;;;;;10.32;2.00;;;15.50;99.90;;;;;;5040982;28;20045;-70
2023/10/12 12:39:36;;;;;;;9.82;1.98;;;15.50;99.90;;;;;;5055243;28;20053;-72
2023/10/12 12:42:06;;;;;;;9.10;1.92;;;15.40;99.90;;;;;;5022588;28;20041;-71
2023/10/12 12:44:33;;;;;;;8.37;1.63;;;15.40;99.90;;;;;;5039253;28;20127;-71
2023/10/12 12:46:59;;;;;;;9.80;1.90;;;15.40;99.90;;;;;;5022488;28;20140;-70
2023/10/12 12:49:25;;;;;;;7.85;1.88;;;15.40;99.90;;;;;;5055518;28;20037;-71
2023/10/12 12:51:58;;;;;;;9.30;2.10;;;15.40;99.90;;;;;;5038618;28;20036;-71
2023/10/12 12:54:27;;;;;;;12.57;2.17;;;15.40;99.90;;;;;;5039158;28;20481;-72
2023/10/12 12:56:53;;;;;;;13.85;2.20;;;15.40;99.90;;;;;;5022269;28;20045;-70
2023/10/12 12:59:24;;;;;;;10.88;2.08;;;15.50;99.90;;;;;;5055403;28;20064;-70
2023/10/12 13:01:53;;;;;;;9.77;2.03;;;15.50;99.90;;;;;;5038769;28;20490;-71
2023/10/12 13:04:19;;;;;;;9.98;2.10;;;15.50;99.90;;;;;;5055040;28;20051;-71
2023/10/12 13:06:45;;;;;;;9.77;1.90;;;15.60;99.90;;;;;;5022091;28;20045;-71
2023/10/12 13:09:29;;;;;;;8.77;1.80;;;15.60;99.90;;;;;;5054886;28;20044;-71
2023/10/12 13:11:56;;;;;;;9.70;2.15;;;15.60;99.90;;;;;;5055022;28;20079;-69
2023/10/12 13:14:22;;;;;;;10.85;2.00;;;15.50;99.90;;;;;;5054752;28;20033;-71
2023/10/12 13:16:58;;;;;;;11.80;2.30;;;15.40;99.90;;;;;;5038078;28;20041;-73
2023/10/12 13:19:34;;;;;;;8.73;2.00;;;15.40;99.90;;;;;;5054906;28;20037;-71
2023/10/12 13:22:09;;;;;;;9.93;1.95;;;15.30;99.90;;;;;;5038180;28;20041;-73
2023/10/12 13:24:37;;;;;;;10.25;2.03;;;15.30;99.90;;;;;;5037884;28;20041;-70
2023/10/12 13:27:08;;;;;;;9.63;2.10;;;15.30;99.90;;;;;;5054837;28;20049;-71
2023/10/12 13:29:43;;;;;;;8.98;2.22;;;15.30;99.90;;;;;;5038218;28;20037;-71
2023/10/12 13:32:12;;;;;;;9.38;2.25;;;15.20;99.90;;;;;;5022976;28;20060;-70
2023/10/12 13:34:48;;;;;;;11.38;2.50;;;15.10;99.90;;;;;;5038147;28;20048;-72
2023/10/12 13:37:14;;;;;;;10.70;2.25;;;15.00;99.90;;;;;;5038833;28;20033;-70
2023/10/12 13:39:40;;;;;;;9.88;2.28;;;14.90;99.90;;;;;;5054142;28;20107;-71
2023/10/12 13:42:11;;;;;;;11.23;2.15;;;14.90;99.90;;;;;;5021286;28;20052;-70
2023/10/12 13:44:41;;;;;;;10.33;2.30;;;14.90;99.90;;;;;;5054333;28;20094;-72
2023/10/12 13:47:07;;;;;;;10.23;2.22;;;14.90;99.90;;;;;;5054385;28;20397;-71
2023/10/12 13:49:45;;;;;;;8.68;2.53;;;14.80;99.90;;;;;;5037502;28;20045;-73
2023/10/12 13:52:12;;;;;;;9.13;2.03;;;14.80;99.90;;;;;;5022849;28;20033;-73
2023/10/12 13:54:42;;;;;;;10.27;2.40;;;14.80;99.90;;;;;;5054390;28;20037;-71
2023/10/12 13:57:08;;;;;;;9.95;2.30;;;14.70;99.90;;;;;;5021917;28;20036;-71
2023/10/12 13:59:33;;;;;;;12.77;2.83;;;14.70;99.90;;;;;;5037108;28;20041;-72
2023/10/12 14:02:05;;;;;;;12.30;2.50;;;14.80;99.90;;;;;;5054197;28;20037;-71
2023/10/12 14:04:40;;;;;;;11.15;2.58;;;14.70;99.90;;;;;;5037696;28;20072;-72
2023/10/12 14:07:07;;;;;;;13.27;2.33;;;14.50;99.90;;;;;;5037399;28;20123;-72
2023/10/12 14:09:36;;;;;;;11.95;2.80;;;14.50;99.90;;;;;;5037472;28;20517;-72
2023/10/12 14:12:02;;;;;;;10.27;2.53;;;14.40;99.90;;;;;;5053658;28;20041;-69
2023/10/12 14:14:30;;;;;;;9.70;2.40;;;14.30;99.90;;;;;;5037305;28;20486;-71
2023/10/12 14:16:56;;;;;;;12.13;2.72;;;14.20;99.90;;;;;;5037229;28;20045;-72
2023/10/12 14:19:25;;;;;;;13.05;2.72;;;14.10;99.90;;;;;;5053869;28;20037;-70
2023/10/12 14:21:52;;;;;;;11.35;2.65;;;14.10;99.90;;;;;;5053700;28;20045;-70
2023/10/12 14:24:24;;;;;;;9.95;2.78;;;14.00;99.90;;;;;;5036961;28;20037;-70
2023/10/12 14:26:58;;;;;;;13.48;2.95;;;14.00;99.90;;;;;;5005176;28;20374;-71
2023/10/12 14:29:25;;;;;;;11.18;2.50;;;13.90;99.90;;;;;;5053740;28;20040;-71
2023/10/12 14:31:55;;;;;;;14.35;2.80;;;13.90;99.90;;;;;;5053640;28;20052;-70
2023/10/12 14:34:26;;;;;;;12.57;2.83;;;13.90;99.90;;;;;;5020828;28;20041;-71
2023/10/12 14:36:52;;;;;;;12.27;2.70;;;13.90;99.90;;;;;;5023027;28;20286;-70
2023/10/12 14:39:24;;;;;;;13.23;2.90;;;13.80;99.90;;;;;;5040063;28;20057;-70
2023/10/12 14:41:50;;;;;;;14.00;2.90;;;13.80;99.90;;;;;;5038495;28;20045;-70
2023/10/12 14:44:17;;;;;;;11.32;2.90;;;13.80;99.90;;;;;;5037920;28;20039;-71
2023/10/12 14:46:45;;;;;;;11.63;2.63;;;13.80;99.90;;;;;;5037004;28;20044;-70
2023/10/12 14:49:14;;;;;;;10.30;2.67;;;13.90;99.90;;;;;;5021401;28;20075;-71
2023/10/12 14:51:40;;;;;;;12.20;3.00;;;13.90;99.90;;;;;;5053558;28;20076;-70
2023/10/12 14:54:10;;;;;;;12.65;2.88;;;13.80;99.90;;;;;;5053738;28;20049;-71
2023/10/12 14:56:39;;;;;;;14.20;3.25;;;13.90;99.90;;;;;;5053766;28;20033;-70
2023/10/12 14:59:05;;;;;;;9.95;3.17;;;13.80;99.90;;;;;;5036723;28;20106;-70
2023/10/12 15:01:32;;;;;;;11.07;3.17;;;13.80;99.90;;;;;;5036275;28;20037;-70
2023/10/12 15:03:58;;;;;;;12.18;3.17;;;13.80;99.90;;;;;;5054415;28;20405;-71
2023/10/12 15:06:24;;;;;;;10.73;2.97;;;13.80;99.90;;;;;;5036496;28;20041;-71